Time;durP1;ratioP1;P1;durP2;ratioP2;P2;SDS_P1;SDS_P2;PMS_P1;PMS_P2;Temp;Humidity;BMP_temperature;BMP_pressure;BME280_temperature;BME280_humidity;BME280_pressure;Samples;Min_cycle;Max_cycle;Signal;HPM_P1;HPM_P2
2021/12/12 00:01:29;;;;;;;17.55;10.70;;;2.90;93.90;;;;;;5092396;28;20079;-60
2021/12/12 00:04:11;;;;;;;15.75;11.00;;;2.90;93.80;;;;;;5092652;28;20475;-60
2021/12/12 00:06:40;;;;;;;16.30;10.55;;;2.90;93.50;;;;;;5092776;28;20024;-61
2021/12/12 00:09:15;;;;;;;15.07;10.52;;;2.90;93.70;;;;;;5093088;28;20028;-60
2021/12/12 00:11:41;;;;;;;17.60;11.90;;;2.90;93.90;;;;;;5092668;28;20020;-60
2021/12/12 00:14:15;;;;;;;16.95;11.48;;;2.90;94.00;;;;;;5092829;28;20473;-60
2021/12/12 00:16:42;;;;;;;19.10;12.23;;;2.90;94.00;;;;;;5092558;28;20023;-61
2021/12/12 00:19:08;;;;;;;18.10;12.30;;;2.90;94.20;;;;;;5093151;28;20032;-61
2021/12/12 00:21:35;;;;;;;18.20;12.50;;;2.90;94.60;;;;;;5093253;28;20057;-60
2021/12/12 00:24:02;;;;;;;16.52;12.13;;;2.90;94.90;;;;;;5092316;28;20036;-60
2021/12/12 00:26:28;;;;;;;19.00;12.20;;;2.90;94.70;;;;;;5092949;28;20031;-60
2021/12/12 00:28:54;;;;;;;16.27;10.88;;;2.90;94.60;;;;;;5092323;28;20020;-60
2021/12/12 00:31:23;;;;;;;17.10;11.65;;;2.90;94.50;;;;;;5092859;28;20024;-60
2021/12/12 00:33:53;;;;;;;16.05;11.02;;;2.90;94.40;;;;;;5091965;28;20047;-61
2021/12/12 00:36:19;;;;;;;17.98;9.65;;;2.90;94.10;;;;;;5092644;28;20082;-61
2021/12/12 00:38:49;;;;;;;16.67;10.50;;;2.80;93.50;;;;;;5092157;28;20028;-62
2021/12/12 00:41:24;;;;;;;16.85;11.10;;;2.80;93.20;;;;;;5092707;28;20024;-61
2021/12/12 00:43:51;;;;;;;15.77;10.13;;;2.90;93.30;;;;;;5091715;28;20468;-62
2021/12/12 00:46:18;;;;;;;17.13;9.77;;;2.80;92.90;;;;;;5092322;28;20123;-60
2021/12/12 00:48:45;;;;;;;18.00;10.30;;;2.80;92.40;;;;;;5091805;28;20020;-60
2021/12/12 00:51:15;;;;;;;14.57;9.90;;;2.90;92.50;;;;;;5092589;28;20028;-60
2021/12/12 00:53:43;;;;;;;15.38;10.27;;;2.90;92.50;;;;;;5092294;28;20110;-61
2021/12/12 00:56:09;;;;;;;18.23;11.75;;;2.80;92.50;;;;;;5091900;28;20016;-60
2021/12/12 00:58:35;;;;;;;19.45;13.02;;;2.80;93.10;;;;;;5092045;28;20463;-60
2021/12/12 01:01:33;;;;;;;21.70;12.68;;;2.90;93.60;;;;;;5088622;28;20020;-60
2021/12/12 01:04:11;;;;;;;17.40;11.73;;;2.80;93.80;;;;;;5076163;28;20405;-61
2021/12/12 01:06:37;;;;;;;19.10;12.07;;;2.80;93.70;;;;;;5091923;28;20384;-61
2021/12/12 01:09:07;;;;;;;18.80;12.68;;;2.80;93.90;;;;;;5091217;28;20028;-61
2021/12/12 01:11:44;;;;;;;16.45;11.43;;;2.80;93.80;;;;;;5092324;28;20030;-61
2021/12/12 01:14:13;;;;;;;16.25;11.27;;;2.80;93.70;;;;;;5090767;28;20391;-62
2021/12/12 01:16:54;;;;;;;17.00;11.85;;;2.80;93.70;;;;;;5092258;28;20017;-60
2021/12/12 01:19:27;;;;;;;17.35;11.65;;;2.80;93.90;;;;;;5092422;28;20027;-61
2021/12/12 01:21:56;;;;;;;17.88;12.45;;;2.80;93.80;;;;;;5091714;28;20051;-62
2021/12/12 01:24:31;;;;;;;21.08;13.68;;;2.80;94.10;;;;;;5092098;28;20465;-61
2021/12/12 01:26:58;;;;;;;17.00;12.30;;;2.80;93.90;;;;;;5077270;28;20089;-61
2021/12/12 01:29:25;;;;;;;20.42;12.27;;;2.80;94.00;;;;;;5071918;28;20028;-62
2021/12/12 01:31:51;;;;;;;17.42;11.73;;;2.80;94.00;;;;;;5071156;28;20158;-62
2021/12/12 01:34:25;;;;;;;16.05;11.40;;;2.80;94.10;;;;;;5071886;28;20084;-61
2021/12/12 01:40:00;;;;;;;17.50;11.70;;;2.80;94.10;;;;;;5071325;28;20055;-61
2021/12/12 01:42:42;;;;;;;18.30;11.73;;;2.80;94.00;;;;;;5071842;28;20028;-62
2021/12/12 01:45:19;;;;;;;17.25;11.85;;;2.80;94.40;;;;;;5071918;28;20372;-61
2021/12/12 01:47:49;;;;;;;18.95;12.00;;;2.80;94.70;;;;;;5071475;28;20381;-61
2021/12/12 01:50:30;;;;;;;16.83;11.80;;;2.80;95.00;;;;;;5071656;28;20039;-60
2021/12/12 01:55:46;;;;;;;18.27;11.93;;;2.70;95.40;;;;;;5071760;28;20102;-60
2021/12/12 01:58:17;;;;;;;16.00;11.25;;;2.80;95.80;;;;;;5072000;28;20036;-60
2021/12/12 02:00:45;;;;;;;18.00;11.63;;;2.80;95.70;;;;;;5072000;28;20024;-62
2021/12/12 02:03:13;;;;;;;13.65;9.70;;;2.70;95.60;;;;;;5071560;28;20457;-61
2021/12/12 02:05:40;;;;;;;15.65;10.48;;;2.80;95.70;;;;;;5071550;28;20025;-62
2021/12/12 02:08:09;;;;;;;13.93;9.95;;;2.80;95.40;;;;;;5073960;28;20508;-60
2021/12/12 02:10:42;;;;;;;16.10;9.93;;;2.80;95.00;;;;;;5075299;28;20028;-60
2021/12/12 02:13:28;;;;;;;14.88;9.88;;;2.80;94.80;;;;;;5073484;28;20082;-60
2021/12/12 02:15:58;;;;;;;13.43;9.70;;;2.80;94.90;;;;;;5074959;28;20143;-60
2021/12/12 02:18:31;;;;;;;13.27;10.00;;;2.80;94.90;;;;;;5075411;28;20070;-60
2021/12/12 02:21:24;;;;;;;12.73;8.65;;;2.80;94.50;;;;;;5074564;28;20029;-61
2021/12/12 02:37:49;;;;;;;12.18;7.40;;;2.70;92.20;;;;;;5074347;28;20415;-61
2021/12/12 02:40:20;;;;;;;9.73;7.40;;;2.70;92.20;;;;;;5074526;28;20051;-62
2021/12/12 02:42:46;;;;;;;10.32;6.50;;;2.70;92.10;;;;;;5074441;28;20461;-61
2021/12/12 02:45:16;;;;;;;9.57;6.32;;;2.70;91.80;;;;;;5074491;28;20390;-61
2021/12/12 02:47:45;;;;;;;11.48;6.65;;;2.70;91.30;;;;;;5074674;28;20106;-61
2021/12/12 02:50:18;;;;;;;8.50;5.90;;;2.70;91.00;;;;;;5074525;28;20020;-60
2021/12/12 02:52:51;;;;;;;10.52;6.20;;;2.70;90.60;;;;;;5095122;28;20039;-61
2021/12/12 02:55:22;;;;;;;8.70;5.45;;;2.70;90.20;;;;;;5094465;28;20384;-60
2021/12/12 02:57:48;;;;;;;7.53;5.32;;;2.70;89.10;;;;;;5094358;28;20419;-60
2021/12/12 03:00:19;;;;;;;9.25;5.40;;;2.70;89.10;;;;;;5094712;28;20028;-61
2021/12/12 03:02:48;;;;;;;7.93;5.43;;;2.70;88.40;;;;;;5094679;28;20024;-60
2021/12/12 03:05:21;;;;;;;7.38;5.72;;;2.70;88.30;;;;;;5094240;28;20081;-61
2021/12/12 03:07:46;;;;;;;9.43;5.95;;;2.70;88.60;;;;;;5093415;28;20024;-60
2021/12/12 03:10:18;;;;;;;8.27;5.35;;;2.70;88.40;;;;;;5093834;28;20027;-60
2021/12/12 03:12:44;;;;;;;12.07;6.03;;;2.70;87.80;;;;;;5094506;28;20106;-62
2021/12/12 03:15:19;;;;;;;8.77;5.78;;;2.70;88.00;;;;;;5093784;28;20477;-61
2021/12/12 03:17:47;;;;;;;8.55;5.43;;;2.70;88.30;;;;;;5094074;28;20104;-61
2021/12/12 03:20:31;;;;;;;8.02;4.90;;;2.70;88.40;;;;;;5093382;28;20052;-62
2021/12/12 03:23:06;;;;;;;7.57;5.13;;;2.80;88.10;;;;;;5083801;28;20044;-60
2021/12/12 03:25:36;;;;;;;7.93;5.38;;;2.80;87.60;;;;;;5073986;28;20103;-60
2021/12/12 03:28:02;;;;;;;8.15;5.25;;;2.80;87.40;;;;;;5073085;28;20432;-60
2021/12/12 03:30:29;;;;;;;7.20;5.43;;;2.80;87.20;;;;;;5073562;28;20021;-60
2021/12/12 03:32:55;;;;;;;8.80;5.57;;;2.80;87.80;;;;;;5073024;28;20030;-60
2021/12/12 03:35:20;;;;;;;8.32;6.07;;;2.80;88.00;;;;;;5073539;28;20032;-60
2021/12/12 03:37:47;;;;;;;9.15;5.97;;;2.80;88.30;;;;;;5073696;28;20033;-61
2021/12/12 03:40:27;;;;;;;11.90;6.10;;;2.80;88.80;;;;;;5073150;28;20028;-61
2021/12/12 03:42:55;;;;;;;9.23;6.43;;;2.80;88.90;;;;;;5072803;28;20043;-61
2021/12/12 03:45:22;;;;;;;7.85;5.57;;;2.80;88.90;;;;;;5073603;28;20555;-61
2021/12/12 03:47:58;;;;;;;9.07;6.05;;;2.80;89.20;;;;;;5073549;28;20490;-61
2021/12/12 03:50:31;;;;;;;8.73;5.95;;;2.80;88.80;;;;;;5073554;28;20024;-61
2021/12/12 03:52:56;;;;;;;7.57;5.30;;;2.80;88.60;;;;;;5072900;28;20420;-62
2021/12/12 03:55:24;;;;;;;8.77;5.95;;;2.80;88.80;;;;;;5073307;28;20105;-61
2021/12/12 03:57:51;;;;;;;8.50;5.88;;;2.70;88.80;;;;;;5073655;28;20400;-61
2021/12/12 04:00:36;;;;;;;8.88;6.28;;;2.80;89.40;;;;;;5073061;28;20028;-61
2021/12/12 04:03:03;;;;;;;8.43;5.85;;;2.70;89.80;;;;;;5072597;28;20037;-60
2021/12/12 04:05:29;;;;;;;9.18;6.18;;;2.70;89.80;;;;;;5073006;28;20445;-60
2021/12/12 04:07:55;;;;;;;9.63;6.10;;;2.70;89.90;;;;;;5072666;28;20066;-61
2021/12/12 04:10:23;;;;;;;7.85;5.50;;;2.70;90.00;;;;;;5072739;28;20473;-60
2021/12/12 04:12:51;;;;;;;9.45;6.05;;;2.70;90.00;;;;;;5073008;28;20037;-60
2021/12/12 04:15:17;;;;;;;7.32;5.68;;;2.70;90.10;;;;;;5072330;28;20036;-60
2021/12/12 04:17:44;;;;;;;10.23;6.10;;;2.70;89.90;;;;;;5072976;28;20047;-60
2021/12/12 04:20:18;;;;;;;8.15;6.20;;;2.70;90.00;;;;;;5072310;28;20103;-60
2021/12/12 04:22:44;;;;;;;8.38;6.43;;;2.70;90.10;;;;;;5072830;28;20032;-60
2021/12/12 04:25:10;;;;;;;9.73;5.93;;;2.70;90.10;;;;;;5071918;28;20025;-62
2021/12/12 04:27:36;;;;;;;8.50;6.25;;;2.80;90.10;;;;;;5072840;28;20029;-60
2021/12/12 04:30:05;;;;;;;9.52;5.90;;;2.80;90.10;;;;;;5071643;28;20307;-60
2021/12/12 04:32:31;;;;;;;7.18;5.72;;;2.80;90.10;;;;;;5072566;28;20033;-60
2021/12/12 04:35:17;;;;;;;6.35;5.40;;;2.80;90.00;;;;;;5072423;28;20037;-61
2021/12/12 04:37:44;;;;;;;8.55;5.25;;;2.80;90.00;;;;;;5072345;28;20489;-61
2021/12/12 04:40:14;;;;;;;9.88;6.20;;;2.80;90.10;;;;;;5071565;28;20488;-61
2021/12/12 04:42:41;;;;;;;9.63;6.32;;;2.80;90.00;;;;;;5072838;28;20021;-61
2021/12/12 04:45:15;;;;;;;8.70;5.85;;;2.70;89.80;;;;;;5073928;28;20032;-61
2021/12/12 04:50:56;;;;;;;8.65;5.82;;;2.70;90.20;;;;;;5072241;28;20040;-61
2021/12/12 04:56:40;;;;;;;10.02;6.03;;;2.70;90.40;;;;;;5072435;28;20051;-62
2021/12/12 04:59:44;;;;;;;8.38;6.78;;;2.80;90.50;;;;;;5071736;28;20035;-61
2021/12/12 05:02:28;;;;;;;8.45;5.78;;;2.80;90.50;;;;;;4990077;28;20618;-61
2021/12/12 05:05:02;;;;;;;9.35;5.60;;;2.70;90.60;;;;;;5066932;28;20060;-61
2021/12/12 05:07:46;;;;;;;8.70;5.93;;;2.80;90.40;;;;;;5071784;28;20326;-61
2021/12/12 05:10:23;;;;;;;8.20;5.55;;;2.70;90.30;;;;;;5070660;28;20469;-61
2021/12/12 05:12:54;;;;;;;11.20;6.20;;;2.70;90.30;;;;;;5071254;28;20028;-61
2021/12/12 05:15:41;;;;;;;8.13;5.35;;;2.70;90.20;;;;;;5070707;28;20039;-61
2021/12/12 05:18:20;;;;;;;9.95;6.38;;;2.70;90.20;;;;;;5070772;28;20106;-61
2021/12/12 05:20:56;;;;;;;8.93;6.30;;;2.70;90.30;;;;;;5079274;28;20350;-61
2021/12/12 05:23:26;;;;;;;11.25;6.40;;;2.70;90.40;;;;;;5081977;28;20033;-61
2021/12/12 05:26:12;;;;;;;7.90;5.47;;;2.70;90.60;;;;;;5081411;28;20060;-60
2021/12/12 05:28:53;;;;;;;9.00;6.50;;;2.60;90.60;;;;;;5078733;28;20512;-60
2021/12/12 05:31:21;;;;;;;11.73;7.05;;;2.60;90.70;;;;;;5079387;28;20024;-60
2021/12/12 05:33:50;;;;;;;10.95;6.60;;;2.60;91.00;;;;;;5081238;28;20035;-60
2021/12/12 05:36:17;;;;;;;10.38;6.88;;;2.60;91.00;;;;;;5077629;28;20035;-60
2021/12/12 05:38:43;;;;;;;10.02;7.60;;;2.60;91.20;;;;;;5083853;28;20540;-60
2021/12/12 05:41:10;;;;;;;10.07;6.88;;;2.60;91.30;;;;;;5079401;28;20024;-61
2021/12/12 05:43:36;;;;;;;11.43;7.60;;;2.60;91.60;;;;;;5086880;28;20366;-60
2021/12/12 05:46:03;;;;;;;10.23;6.80;;;2.60;91.60;;;;;;5094160;28;20103;-61
2021/12/12 05:48:29;;;;;;;9.23;6.55;;;2.60;91.60;;;;;;5085130;28;20381;-60
2021/12/12 05:50:55;;;;;;;9.30;6.20;;;2.60;91.40;;;;;;5087657;28;20111;-60
2021/12/12 05:53:22;;;;;;;11.10;6.78;;;2.50;91.40;;;;;;5085758;28;20447;-60
2021/12/12 05:55:49;;;;;;;10.00;6.50;;;2.60;91.50;;;;;;5084984;28;20054;-60
2021/12/12 05:58:18;;;;;;;9.85;6.97;;;2.50;91.60;;;;;;5085191;28;20025;-60
2021/12/12 06:01:01;;;;;;;7.93;6.10;;;2.50;91.70;;;;;;5085998;28;20024;-60
2021/12/12 06:03:29;;;;;;;14.23;6.57;;;2.50;91.40;;;;;;5080460;28;20036;-60
2021/12/12 06:05:57;;;;;;;10.13;6.60;;;2.50;91.20;;;;;;5077894;28;20020;-60
2021/12/12 06:08:24;;;;;;;9.65;6.00;;;2.50;91.20;;;;;;5087349;28;20024;-60
2021/12/12 06:10:52;;;;;;;10.35;5.95;;;2.50;90.90;;;;;;5083065;28;20103;-61
2021/12/12 06:13:19;;;;;;;9.30;6.07;;;2.50;90.80;;;;;;5082651;28;20042;-61
2021/12/12 06:15:50;;;;;;;10.65;6.07;;;2.50;91.00;;;;;;5082029;28;20469;-60
2021/12/12 06:18:17;;;;;;;8.45;6.13;;;2.50;91.20;;;;;;5083285;28;20024;-61
2021/12/12 06:20:43;;;;;;;9.05;6.20;;;2.50;91.30;;;;;;5086679;28;20475;-60
2021/12/12 06:23:10;;;;;;;10.70;6.72;;;2.50;91.30;;;;;;5082308;28;20389;-60
2021/12/12 06:25:38;;;;;;;8.85;6.50;;;2.50;91.40;;;;;;5074851;28;20060;-60
2021/12/12 06:28:18;;;;;;;11.48;6.85;;;2.50;91.50;;;;;;5081819;28;20105;-61
2021/12/12 06:30:45;;;;;;;10.27;7.43;;;2.50;91.40;;;;;;5094836;28;20473;-61
2021/12/12 06:33:11;;;;;;;8.73;6.65;;;2.50;91.50;;;;;;5094172;28;20477;-59
2021/12/12 06:35:37;;;;;;;10.32;7.32;;;2.50;91.60;;;;;;5094616;28;20466;-59
2021/12/12 06:38:07;;;;;;;10.48;6.72;;;2.50;91.60;;;;;;5089381;28;20025;-59
2021/12/12 06:40:34;;;;;;;10.18;6.55;;;2.50;91.40;;;;;;5074734;28;20033;-59
2021/12/12 06:43:03;;;;;;;8.93;6.03;;;2.60;91.30;;;;;;5074249;28;20089;-59
2021/12/12 06:48:14;;;;;;;9.43;6.40;;;2.60;90.70;;;;;;5094266;28;20515;-60
2021/12/12 06:50:43;;;;;;;10.75;6.70;;;2.60;90.60;;;;;;5094542;28;20138;-60
2021/12/12 06:53:11;;;;;;;9.95;6.20;;;2.60;90.50;;;;;;5087577;28;20047;-60
2021/12/12 06:55:43;;;;;;;11.13;6.15;;;2.60;90.50;;;;;;5094683;28;20105;-61
2021/12/12 06:58:09;;;;;;;8.35;5.75;;;2.60;90.40;;;;;;5092922;28;20032;-60
2021/12/12 07:00:35;;;;;;;9.50;5.65;;;2.60;90.00;;;;;;5094578;28;20091;-60
2021/12/12 07:03:02;;;;;;;11.88;5.95;;;2.70;89.00;;;;;;5092806;28;20031;-60
2021/12/12 07:05:29;;;;;;;10.43;5.78;;;2.70;89.30;;;;;;5093585;28;20179;-60
2021/12/12 07:07:57;;;;;;;8.30;5.13;;;2.70;89.20;;;;;;5094526;28;20154;-61
2021/12/12 07:10:26;;;;;;;10.38;6.05;;;2.70;89.20;;;;;;5093830;28;20025;-61
2021/12/12 07:12:55;;;;;;;11.57;6.60;;;2.80;89.50;;;;;;5093925;28;20401;-61
2021/12/12 07:15:26;;;;;;;8.88;6.47;;;2.80;89.40;;;;;;5093634;28;20040;-61
2021/12/12 07:17:57;;;;;;;9.68;6.55;;;2.80;89.70;;;;;;5094361;28;20077;-62
2021/12/12 07:20:24;;;;;;;9.85;5.82;;;2.80;89.40;;;;;;5091288;28;20063;-61
2021/12/12 07:22:49;;;;;;;11.68;7.13;;;2.90;89.30;;;;;;5081481;28;20024;-61
2021/12/12 07:25:15;;;;;;;9.88;6.53;;;2.90;89.30;;;;;;5080929;28;20043;-61
2021/12/12 07:27:41;;;;;;;9.77;6.75;;;2.90;89.50;;;;;;5079300;28;20024;-61
2021/12/12 07:30:09;;;;;;;10.45;7.40;;;2.90;89.80;;;;;;5085111;28;20027;-61
2021/12/12 07:32:37;;;;;;;10.13;7.90;;;3.00;90.10;;;;;;5082824;28;20020;-61
2021/12/12 07:35:09;;;;;;;12.45;7.55;;;3.00;90.20;;;;;;5081181;28;20032;-61
2021/12/12 07:37:36;;;;;;;11.43;7.95;;;3.00;90.10;;;;;;5082358;28;20038;-61
2021/12/12 07:40:07;;;;;;;13.32;7.47;;;3.00;90.30;;;;;;5079635;28;20074;-61
2021/12/12 07:42:34;;;;;;;12.37;7.77;;;3.10;90.50;;;;;;5085891;28;20115;-61
2021/12/12 07:45:00;;;;;;;12.77;7.78;;;3.10;90.80;;;;;;5083516;28;20459;-61
2021/12/12 07:47:28;;;;;;;10.65;7.75;;;3.10;91.00;;;;;;5074304;28;20080;-62
2021/12/12 07:49:54;;;;;;;11.60;7.78;;;3.10;91.50;;;;;;5089463;28;20060;-61
2021/12/12 07:52:25;;;;;;;11.55;8.48;;;3.20;91.40;;;;;;5092606;28;20510;-61
2021/12/12 07:54:53;;;;;;;13.10;8.30;;;3.20;91.70;;;;;;5093657;28;20039;-61
2021/12/12 07:57:19;;;;;;;14.38;8.18;;;3.20;91.90;;;;;;5092667;28;20115;-62
2021/12/12 07:59:46;;;;;;;12.77;8.38;;;3.20;92.50;;;;;;5093411;28;20024;-61
2021/12/12 08:02:16;;;;;;;12.45;9.02;;;3.20;92.50;;;;;;5092726;28;20026;-62
2021/12/12 08:04:43;;;;;;;10.50;7.43;;;3.20;92.50;;;;;;5092946;28;20380;-61
2021/12/12 08:07:13;;;;;;;11.13;8.32;;;3.20;92.60;;;;;;5093261;28;20109;-61
2021/12/12 08:09:42;;;;;;;14.32;8.38;;;3.30;92.70;;;;;;5091857;28;20024;-62
2021/12/12 08:12:10;;;;;;;14.45;8.38;;;3.30;92.80;;;;;;5077486;28;20051;-61
2021/12/12 08:14:36;;;;;;;13.95;8.57;;;3.30;93.00;;;;;;5083895;28;20056;-62
2021/12/12 08:17:04;;;;;;;13.38;8.30;;;3.40;93.00;;;;;;5085071;28;20020;-61
2021/12/12 08:19:30;;;;;;;14.68;9.32;;;3.40;92.90;;;;;;5092455;28;20819;-62
2021/12/12 08:22:01;;;;;;;10.13;7.68;;;3.40;92.90;;;;;;5091813;28;20115;-62
2021/12/12 08:24:27;;;;;;;14.32;8.80;;;3.40;92.80;;;;;;5092381;28;20040;-62
2021/12/12 08:26:53;;;;;;;12.52;7.82;;;3.50;92.80;;;;;;5092764;28;20032;-62
2021/12/12 08:29:19;;;;;;;11.82;8.20;;;3.50;92.90;;;;;;5092369;28;20024;-61
2021/12/12 08:31:46;;;;;;;10.00;7.95;;;3.50;92.90;;;;;;5090686;28;20062;-61
2021/12/12 08:34:12;;;;;;;10.38;7.15;;;3.50;92.60;;;;;;5080509;28;20028;-62
2021/12/12 08:36:43;;;;;;;12.48;6.82;;;3.50;92.30;;;;;;5081946;28;20024;-62
2021/12/12 08:39:11;;;;;;;10.05;6.78;;;3.50;91.60;;;;;;5083380;28;20051;-62
2021/12/12 08:41:38;;;;;;;12.95;7.45;;;3.50;91.80;;;;;;5082314;28;20123;-62
2021/12/12 08:44:07;;;;;;;9.48;7.18;;;3.50;91.80;;;;;;5081933;28;20071;-61
2021/12/12 08:46:33;;;;;;;11.82;7.75;;;3.50;91.70;;;;;;5081158;28;20055;-61
2021/12/12 08:49:00;;;;;;;9.50;7.47;;;3.50;91.80;;;;;;5083139;28;20021;-61
2021/12/12 08:51:35;;;;;;;9.65;6.47;;;3.40;91.60;;;;;;5084624;28;20073;-61
2021/12/12 08:54:26;;;;;;;9.60;7.05;;;3.50;91.30;;;;;;5080365;28;20028;-62
2021/12/12 08:57:01;;;;;;;;;;;3.50;91.20;;;;;;5083593;28;20143;-63
2021/12/12 08:59:28;;;;;;;8.60;6.38;;;3.40;90.80;;;;;;5078800;28;20029;-61
2021/12/12 09:01:59;;;;;;;12.38;7.43;;;3.50;90.90;;;;;;5082218;28;20031;-62
2021/12/12 09:04:29;;;;;;;9.88;6.63;;;3.50;90.80;;;;;;5082982;28;20027;-62
2021/12/12 09:07:03;;;;;;;11.63;7.65;;;3.50;90.50;;;;;;5088341;28;20028;-62
2021/12/12 09:09:58;;;;;;;13.65;7.78;;;3.50;90.60;;;;;;5076888;28;20488;-62
2021/12/12 09:12:29;;;;;;;10.18;7.65;;;3.50;90.40;;;;;;5076775;28;20110;-62
2021/12/12 09:15:07;;;;;;;8.55;6.80;;;3.60;90.50;;;;;;5088431;28;20032;-62
2021/12/12 09:17:41;;;;;;;8.82;6.80;;;3.60;90.50;;;;;;5078128;28;20048;-62
2021/12/12 09:20:13;;;;;;;10.77;6.68;;;3.60;90.90;;;;;;5079867;28;20029;-63
2021/12/12 09:22:47;;;;;;;8.82;6.85;;;3.60;89.50;;;;;;5088231;28;20477;-62
2021/12/12 09:25:31;;;;;;;10.68;7.43;;;3.60;89.40;;;;;;5071189;28;20124;-62
2021/12/12 09:28:40;;;;;;;9.73;6.47;;;3.70;89.20;;;;;;5070934;28;20025;-61
2021/12/12 09:31:15;;;;;;;9.75;6.95;;;3.70;89.00;;;;;;5071751;28;20035;-62
2021/12/12 09:33:52;;;;;;;9.73;6.80;;;3.70;88.70;;;;;;5071680;28;20044;-62
2021/12/12 09:36:43;;;;;;;11.10;6.97;;;3.80;88.40;;;;;;5074854;28;20020;-61
2021/12/12 09:39:12;;;;;;;;;;;3.80;88.00;;;;;;5075119;28;20044;-61
2021/12/12 09:42:15;;;;;;;10.63;7.88;;;3.80;88.50;;;;;;5091317;28;19908;-61
2021/12/12 09:45:11;;;;;;;9.52;6.70;;;3.80;89.00;;;;;;5091828;28;20045;-61
2021/12/12 09:51:52;;;;;;;10.17;8.00;;;3.90;88.50;;;;;;5070838;28;20032;-62
2021/12/12 09:54:47;;;;;;;13.98;8.43;;;3.90;89.00;;;;;;5053324;28;20124;-62
2021/12/12 09:57:34;;;;;;;12.63;8.70;;;3.90;89.60;;;;;;5082115;28;20040;-62
2021/12/12 10:00:24;;;;;;;13.10;8.30;;;4.00;90.00;;;;;;5075263;28;20028;-61
2021/12/12 10:03:05;;;;;;;12.05;8.30;;;4.00;90.20;;;;;;5071119;28;20021;-62
2021/12/12 10:05:40;;;;;;;11.77;8.40;;;4.00;90.30;;;;;;5081229;28;20035;-62
2021/12/12 10:08:08;;;;;;;12.65;9.50;;;4.00;90.30;;;;;;5080675;28;20021;-62
2021/12/12 10:11:06;;;;;;;10.48;8.23;;;4.00;90.60;;;;;;5078141;28;20031;-61
2021/12/12 10:13:42;;;;;;;15.13;9.45;;;4.00;90.80;;;;;;5080468;28;20454;-61
2021/12/12 10:16:14;;;;;;;13.98;9.73;;;4.00;90.70;;;;;;5075876;28;20366;-61
2021/12/12 10:18:50;;;;;;;13.10;9.23;;;4.00;91.10;;;;;;5076608;28;20025;-65
2021/12/12 10:21:22;;;;;;;14.23;9.88;;;4.10;91.00;;;;;;5079310;28;20051;-62
2021/12/12 10:24:06;;;;;;;15.63;9.75;;;4.10;91.00;;;;;;5083554;28;20460;-62
2021/12/12 10:26:38;;;;;;;12.63;9.43;;;4.10;91.00;;;;;;5077383;28;20024;-62
2021/12/12 10:29:12;;;;;;;12.98;9.35;;;4.20;91.10;;;;;;5072991;28;20032;-62
2021/12/12 10:32:03;;;;;;;12.40;9.70;;;4.30;91.40;;;;;;5071706;28;20440;-62
2021/12/12 10:34:36;;;;;;;15.20;10.07;;;4.40;91.60;;;;;;5072939;28;20017;-61
2021/12/12 10:37:26;;;;;;;13.43;9.75;;;4.50;91.20;;;;;;5073682;28;20082;-62
2021/12/12 10:40:09;;;;;;;13.23;9.18;;;4.60;90.80;;;;;;5073088;28;20024;-62
2021/12/12 10:42:45;;;;;;;12.52;9.50;;;4.70;90.80;;;;;;5079505;28;20349;-62
2021/12/12 10:45:17;;;;;;;15.43;8.63;;;4.90;90.40;;;;;;5089710;28;20358;-62
2021/12/12 10:47:55;;;;;;;15.68;9.77;;;5.00;89.10;;;;;;5084252;28;20056;-61
2021/12/12 10:50:36;;;;;;;12.73;9.48;;;5.10;88.90;;;;;;5077486;28;20295;-61
2021/12/12 10:53:07;;;;;;;11.52;8.55;;;5.20;88.70;;;;;;5094710;28;20095;-62
2021/12/12 10:55:40;;;;;;;;;;;5.30;87.30;;;;;;5094396;28;20046;-61
2021/12/12 10:58:14;;;;;;;12.15;7.78;;;5.40;86.80;;;;;;5094375;28;19904;-62
2021/12/12 11:00:44;;;;;;;12.10;8.48;;;5.50;86.20;;;;;;5081994;28;20028;-62
2021/12/12 11:03:24;;;;;;;10.87;7.67;;;5.60;85.80;;;;;;5082252;28;20082;-62
2021/12/12 11:06:11;;;;;;;12.80;7.97;;;5.60;84.40;;;;;;5079769;28;20327;-63
2021/12/12 11:08:50;;;;;;;12.20;9.27;;;5.60;84.70;;;;;;5080988;28;20071;-62
2021/12/12 11:11:24;;;;;;;12.05;8.68;;;5.60;84.60;;;;;;5084348;28;20016;-62
2021/12/12 11:14:01;;;;;;;10.95;8.45;;;5.70;85.00;;;;;;5083046;28;20025;-62
2021/12/12 11:16:36;;;;;;;12.35;8.75;;;5.70;85.00;;;;;;5077426;28;20675;-62
2021/12/12 11:19:16;;;;;;;14.98;10.25;;;5.70;85.00;;;;;;5086366;28;20028;-63
2021/12/12 11:21:49;;;;;;;12.65;9.95;;;5.60;85.10;;;;;;5085641;28;20027;-62
2021/12/12 11:24:31;;;;;;;15.10;10.85;;;5.60;85.30;;;;;;5092880;28;20036;-62
2021/12/12 11:27:08;;;;;;;13.32;10.52;;;5.60;86.20;;;;;;5093918;28;20052;-62
2021/12/12 11:29:39;;;;;;;13.02;9.60;;;5.60;86.60;;;;;;5093476;28;20067;-62
2021/12/12 11:32:12;;;;;;;12.27;9.45;;;5.70;86.90;;;;;;5093385;28;20079;-62
2021/12/12 11:34:42;;;;;;;13.18;9.60;;;5.70;86.80;;;;;;5091374;28;20545;-61
2021/12/12 11:37:46;;;;;;;14.82;9.85;;;5.80;86.20;;;;;;5082951;28;20025;-61
2021/12/12 11:40:20;;;;;;;15.15;9.63;;;5.80;85.20;;;;;;5082646;28;20063;-62
2021/12/12 11:42:58;;;;;;;13.40;9.70;;;5.80;85.20;;;;;;5083626;28;20061;-62
2021/12/12 11:45:29;;;;;;;13.27;10.02;;;5.90;85.60;;;;;;5082051;28;20025;-62
2021/12/12 11:48:25;;;;;;;14.30;9.70;;;5.90;85.50;;;;;;5085026;28;20048;-62
2021/12/12 11:51:01;;;;;;;12.30;9.07;;;5.90;84.70;;;;;;5081145;28;20036;-61
2021/12/12 11:53:49;;;;;;;11.93;9.40;;;5.90;84.40;;;;;;5072654;28;20098;-62
2021/12/12 11:56:21;;;;;;;12.30;8.75;;;6.00;85.00;;;;;;5073350;28;20464;-62
2021/12/12 11:58:50;;;;;;;10.85;8.65;;;6.00;84.60;;;;;;5072579;28;20028;-62
2021/12/12 12:01:36;;;;;;;13.77;10.27;;;6.00;84.20;;;;;;5073248;28;20025;-62
2021/12/12 12:04:05;;;;;;;13.25;9.85;;;6.00;85.20;;;;;;5072788;28;20505;-62
2021/12/12 12:07:01;;;;;;;14.85;10.25;;;6.10;84.50;;;;;;5072363;28;20028;-62
2021/12/12 12:09:30;;;;;;;11.55;9.50;;;6.10;84.40;;;;;;5072950;28;20434;-62
2021/12/12 12:12:11;;;;;;;11.30;9.38;;;6.00;83.60;;;;;;5072810;28;20024;-62
2021/12/12 12:14:58;;;;;;;11.95;9.65;;;6.00;84.00;;;;;;5072413;28;20059;-62
2021/12/12 12:18:01;;;;;;;13.32;9.80;;;6.00;84.50;;;;;;5072991;28;20028;-62
2021/12/12 12:20:54;;;;;;;14.50;10.55;;;6.00;84.00;;;;;;5072214;28;20036;-63
2021/12/12 12:26:51;;;;;;;12.63;9.75;;;6.00;84.10;;;;;;5066046;28;20043;-62
2021/12/12 12:29:35;;;;;;;13.80;10.90;;;6.00;83.80;;;;;;5072677;28;20036;-62
2021/12/12 12:32:37;;;;;;;14.65;10.90;;;6.10;83.80;;;;;;5072522;28;20074;-62
2021/12/12 12:35:40;;;;;;;13.63;10.40;;;6.00;84.00;;;;;;5072446;28;20062;-62
2021/12/12 12:38:45;;;;;;;13.00;9.98;;;6.00;83.70;;;;;;5072239;28;20025;-61
2021/12/12 12:41:33;;;;;;;12.80;9.63;;;6.00;84.00;;;;;;5083207;28;20073;-62
2021/12/12 12:44:35;;;;;;;14.10;10.38;;;6.00;83.70;;;;;;5083302;28;20039;-62
2021/12/12 12:47:25;;;;;;;14.93;10.27;;;5.90;83.50;;;;;;5079840;28;20048;-61
2021/12/12 12:50:29;;;;;;;11.90;9.48;;;5.90;83.80;;;;;;5082323;28;20350;-62
2021/12/12 12:53:13;;;;;;;12.65;10.05;;;5.80;84.50;;;;;;5085050;28;20032;-62
2021/12/12 12:56:11;;;;;;;13.15;10.15;;;5.70;84.30;;;;;;5079502;28;20031;-62
2021/12/12 12:58:57;;;;;;;14.27;10.65;;;5.70;85.00;;;;;;5037107;28;20558;-63
2021/12/12 13:01:54;;;;;;;12.82;10.13;;;5.60;85.60;;;;;;5079155;28;20054;-62
2021/12/12 13:05:06;;;;;;;14.95;10.82;;;5.50;85.60;;;;;;5072462;28;20481;-62
2021/12/12 13:07:41;;;;;;;13.55;9.90;;;5.50;86.20;;;;;;5052199;28;20078;-65
2021/12/12 13:10:16;;;;;;;12.75;9.75;;;5.50;87.00;;;;;;5071596;28;20017;-65
2021/12/12 13:13:12;;;;;;;13.00;9.82;;;5.50;86.80;;;;;;5071384;28;20021;-64
2021/12/12 13:15:47;;;;;;;12.25;9.65;;;5.40;86.90;;;;;;5069825;28;20440;-65
2021/12/12 13:18:20;;;;;;;12.55;9.82;;;5.40;87.00;;;;;;5071597;28;20106;-64
2021/12/12 13:21:17;;;;;;;14.30;10.13;;;5.40;86.30;;;;;;5078686;28;20434;-64
2021/12/12 13:23:47;;;;;;;12.68;9.63;;;5.30;86.60;;;;;;5090303;28;20511;-64
2021/12/12 13:26:18;;;;;;;12.48;9.73;;;5.30;86.80;;;;;;5071773;28;20035;-64
2021/12/12 13:29:03;;;;;;;;;;;5.20;86.90;;;;;;5078715;28;20039;-64
2021/12/12 13:31:40;;;;;;;13.05;9.32;;;5.20;86.70;;;;;;5087919;28;20260;-64
2021/12/12 13:34:24;;;;;;;13.38;9.88;;;5.20;86.60;;;;;;5084492;28;20495;-64
2021/12/12 13:37:30;;;;;;;10.93;8.27;;;5.20;86.80;;;;;;5090418;28;20032;-63
2021/12/12 13:40:16;;;;;;;10.25;8.57;;;5.00;86.50;;;;;;5090591;28;20028;-65
2021/12/12 13:43:21;;;;;;;12.48;8.80;;;5.00;86.60;;;;;;5091156;28;20373;-65
2021/12/12 13:46:33;;;;;;;10.93;9.00;;;5.00;87.00;;;;;;5089723;28;20109;-65
2021/12/12 13:49:11;;;;;;;13.07;8.75;;;5.00;86.90;;;;;;5005986;28;20039;-65
2021/12/12 13:52:00;;;;;;;13.32;9.00;;;4.90;86.90;;;;;;4989013;28;20039;-65
2021/12/12 13:54:38;;;;;;;11.77;8.55;;;4.90;86.90;;;;;;5059492;28;20384;-64
2021/12/12 13:57:13;;;;;;;12.82;8.65;;;4.90;86.60;;;;;;5091500;28;20440;-64
2021/12/12 14:00:07;;;;;;;9.85;7.82;;;4.90;86.90;;;;;;5090362;28;20040;-64
2021/12/12 14:02:35;;;;;;;13.27;8.63;;;4.90;86.80;;;;;;5091840;28;20032;-64